Airfield :
LOGIN :

Register | Disclaimer

   EN    FR    IT 

 










Legend :    VFR   Marginal VFR   IFR   Intensive IFR   Very Intensive IFR
Visi :
Ceiling :
>= 8 km
>= 3000ft
5 to 8 km
1000 to 3000 ft
1500m to 5 km
500 to 1000 ft
800 to 1500m
200 to 500 ft
< 800m
< 200 ft
Symbols :   Thunderstorms  Fog  Heavy snow  Heavy precipitations  Wind > 20 kt
SIGMETs :     Misc.  Thunderstorms  Icing  Turbulence  Mountain Waves  Volcanic Ashes






- Airport Elevation : 2625 ft
- IATA code : LEU


LESU - Aeròdrom dels Pirineus-Alt Urgell

CURRENT METAR :
  • 161030Z 18011KT 140V230 9999 FEW020 BKN070 09/03 Q1015

EXPIRED METARs :
  • 161000Z 20010KT 160V230 9999 FEW020 BKN070 09/03 Q1015
  • 160930Z 22007KT 160V270 9999 FEW020 BKN067 09/02 Q1015
  • 160900Z 21005KT 140V270 9999 FEW020 BKN067 07/03 Q1015

TAF TAF LESU
Valid from the 16 at 09:00 until the 17 at 09:00 UTC


160800Z 1609/1709 VRB02KT 9999 SCT050 TX14/1614Z TNM01/1706Z
TEMPO 1610/1614 20010KT
PROB40
TEMPO 1611/1617 RA FEW040TCU
BECMG 1614/1615 36010KT
BECMG 1618/1620 VRB03KT



MET'MAP, your aeronautical weather chart ! - Copyright ORBIFLY December 2007 - Disclaimer

ORBIFLY MET'MAP TEAM :

Programming & Development : Alexandra Zaïnal
Concept & original design : Baudouin d'Aumeries
Assistance for programming : Marc-Olivier Méhu
Technical & hardware support : Manuel Goepfert

Contact : metmap@orbifly.com




SOURCES & CREDITS :

   NOAA